createdAt,value
2017-10-26T00:01:02.513Z,81.80
2017-10-26T00:03:30.042Z,82.80
2017-10-26T00:05:57.600Z,83.00
2017-10-26T00:08:25.122Z,83.00
2017-10-26T00:10:52.643Z,82.60
2017-10-26T00:13:20.971Z,82.70
2017-10-26T00:15:48.499Z,82.70
2017-10-26T00:18:16.411Z,82.80
2017-10-26T00:20:43.999Z,83.10
2017-10-26T00:23:11.523Z,83.00
2017-10-26T00:25:39.046Z,82.90
2017-10-26T00:28:06.595Z,83.20
2017-10-26T00:30:34.884Z,82.50
2017-10-26T00:33:02.415Z,82.40
2017-10-26T00:35:29.971Z,82.20
2017-10-26T00:37:57.499Z,82.40
2017-10-26T00:40:25.020Z,82.70
2017-10-26T00:42:52.594Z,82.30
2017-10-26T00:45:20.123Z,82.30
2017-10-26T00:47:47.647Z,82.00
2017-10-26T00:50:16.460Z,82.50
2017-10-26T00:52:43.992Z,81.70
2017-10-26T00:55:11.525Z,81.50
2017-10-26T00:57:39.072Z,82.00
2017-10-26T01:00:06.607Z,81.90
2017-10-26T01:02:34.136Z,82.40
2017-10-26T01:05:01.740Z,82.10
2017-10-26T01:07:30.023Z,82.20
2017-10-26T01:09:57.551Z,82.20
2017-10-26T01:12:25.111Z,82.40
2017-10-26T01:14:52.640Z,82.50
2017-10-26T01:17:20.304Z,82.90
2017-10-26T01:19:47.864Z,82.70
2017-10-26T01:22:16.412Z,83.10
2017-10-26T01:24:43.944Z,83.40
2017-10-26T01:27:11.524Z,83.50
2017-10-26T01:29:39.820Z,82.80
2017-10-26T01:32:07.351Z,82.80
2017-10-26T01:34:34.903Z,83.00
2017-10-26T01:37:02.435Z,83.20
2017-10-26T01:39:29.972Z,83.10
2017-10-26T01:41:57.534Z,83.00
2017-10-26T01:44:25.067Z,83.30
2017-10-26T01:46:52.600Z,83.50
2017-10-26T01:49:20.219Z,83.50
2017-10-26T01:51:47.752Z,83.30
2017-10-26T01:54:16.395Z,83.00
2017-10-26T01:56:43.963Z,82.80
2017-10-26T01:59:11.487Z,82.90
2017-10-26T02:01:39.007Z,83.30
2017-10-26T02:04:06.555Z,83.60
2017-10-26T02:06:34.085Z,83.50
2017-10-26T02:09:01.615Z,83.50
2017-10-26T02:11:29.198Z,83.70
2017-10-26T02:13:56.725Z,84.20
2017-10-26T02:16:25.031Z,84.50
2017-10-26T02:18:52.991Z,84.50
2017-10-26T02:21:20.520Z,84.80
2017-10-26T02:23:48.051Z,85.00
2017-10-26T02:26:17.244Z,86.20
2017-10-26T02:28:56.621Z,86.20
2017-10-26T02:31:35.803Z,86.60
2017-10-26T02:34:03.336Z,87.40
2017-10-26T02:36:30.873Z,88.10
2017-10-26T02:38:58.440Z,88.10
2017-10-26T02:41:25.980Z,88.80
2017-10-26T02:43:53.512Z,89.10
2017-10-26T02:46:21.835Z,89.70
2017-10-26T02:48:49.372Z,89.70
2017-10-26T02:51:17.668Z,89.90
2017-10-26T02:53:45.256Z,89.90
2017-10-26T02:56:13.773Z,90.00
2017-10-26T02:58:42.072Z,90.10
2017-10-26T03:01:09.627Z,90.00
2017-10-26T03:03:37.928Z,89.80
2017-10-26T03:06:05.467Z,89.70
2017-10-26T03:08:33.027Z,89.90
2017-10-26T03:11:00.559Z,90.00
2017-10-26T03:13:28.097Z,90.10
2017-10-26T03:15:55.691Z,90.20
2017-10-26T03:18:23.990Z,90.20
2017-10-26T03:20:51.669Z,90.20
2017-10-26T03:23:19.234Z,90.10
2017-10-26T03:25:46.768Z,90.10
2017-10-26T03:28:15.496Z,90.00
2017-10-26T03:30:43.058Z,89.80
2017-10-26T03:33:10.590Z,89.90
2017-10-26T03:35:38.119Z,89.90
2017-10-26T03:38:05.703Z,89.70
2017-10-26T03:40:33.240Z,89.70
2017-10-26T03:43:00.772Z,89.20
2017-10-26T03:45:28.324Z,89.10
2017-10-26T03:47:55.856Z,88.80
2017-10-26T03:50:23.391Z,88.80
2017-10-26T03:52:50.956Z,89.00
2017-10-26T03:55:18.488Z,89.10
2017-10-26T03:57:46.795Z,89.10
2017-10-26T04:00:16.600Z,89.10
2017-10-26T04:02:44.132Z,88.90
2017-10-26T04:05:11.659Z,88.80
2017-10-26T04:07:39.219Z,88.60
2017-10-26T04:10:06.764Z,88.60
2017-10-26T04:12:34.301Z,88.60
2017-10-26T04:15:01.867Z,88.60
2017-10-26T04:17:29.402Z,88.70
2017-10-26T04:19:56.935Z,88.80
2017-10-26T04:22:24.789Z,88.70
2017-10-26T04:24:52.329Z,88.60
2017-10-26T04:27:19.890Z,88.40
2017-10-26T04:29:47.458Z,88.30
2017-10-26T04:32:16.454Z,88.10
2017-10-26T04:34:43.993Z,88.30
2017-10-26T04:37:11.572Z,88.60
2017-10-26T04:39:39.100Z,88.70
2017-10-26T04:42:06.635Z,88.60
2017-10-26T04:44:34.985Z,89.50
2017-10-26T04:47:02.523Z,89.40
2017-10-26T04:49:30.066Z,90.00
2017-10-26T04:51:57.632Z,90.00
2017-10-26T04:54:25.167Z,90.10
2017-10-26T04:56:53.475Z,90.40
2017-10-26T04:59:21.051Z,90.30
2017-10-26T05:01:48.582Z,90.40
2017-10-26T05:04:16.423Z,90.50
2017-10-26T05:06:44.773Z,90.80
2017-10-26T05:09:12.307Z,90.80
2017-10-26T05:11:39.842Z,90.90
2017-10-26T05:14:07.416Z,91.00
2017-10-26T05:16:34.947Z,91.10
2017-10-26T05:19:02.529Z,91.10
2017-10-26T05:21:30.151Z,90.90
2017-10-26T05:23:57.691Z,90.90
2017-10-26T05:26:25.223Z,90.80
2017-10-26T05:28:52.808Z,90.50
2017-10-26T05:31:21.850Z,90.40
2017-10-26T05:33:49.541Z,90.40
2017-10-26T05:36:17.140Z,90.50
2017-10-26T05:38:44.684Z,90.60
2017-10-26T05:41:12.213Z,90.60
2017-10-26T05:43:39.791Z,90.90
2017-10-26T05:46:07.324Z,91.10
2017-10-26T05:48:34.900Z,91.20
2017-10-26T05:51:02.495Z,91.30
2017-10-26T05:53:30.040Z,91.20
2017-10-26T05:55:57.578Z,91.60
2017-10-26T05:58:25.143Z,91.50
2017-10-26T06:00:52.682Z,91.70
2017-10-26T06:03:20.224Z,91.60
2017-10-26T06:05:47.779Z,91.50
2017-10-26T06:08:16.408Z,91.70
2017-10-26T06:10:43.947Z,91.60
2017-10-26T06:13:11.532Z,91.60
2017-10-26T06:15:39.067Z,91.60
2017-10-26T06:18:06.616Z,91.60
2017-10-26T06:20:34.188Z,91.70
2017-10-26T06:23:01.728Z,91.70
2017-10-26T06:25:30.431Z,91.40
2017-10-26T06:27:57.991Z,91.50
2017-10-26T06:30:25.526Z,91.30
2017-10-26T06:32:53.823Z,91.30
2017-10-26T06:35:21.591Z,91.20
2017-10-26T06:37:49.132Z,91.10
2017-10-26T06:40:17.436Z,91.20
2017-10-26T06:42:44.996Z,91.10
2017-10-26T06:45:12.532Z,91.20
2017-10-26T06:47:40.072Z,91.20
2017-10-26T06:50:08.127Z,91.10
2017-10-26T06:52:35.658Z,91.10
2017-10-26T06:55:04.956Z,91.10
2017-10-26T06:57:32.560Z,91.00
2017-10-26T07:00:00.104Z,91.10
2017-10-26T07:02:27.640Z,91.30
2017-10-26T07:04:55.213Z,91.30
2017-10-26T07:07:22.750Z,91.30
2017-10-26T07:09:50.287Z,91.40
2017-10-26T07:12:17.859Z,91.50
2017-10-26T07:14:45.403Z,91.40
2017-10-26T07:17:15.352Z,91.60
2017-10-26T07:19:42.948Z,91.60
2017-10-26T07:22:10.483Z,91.30
2017-10-26T07:24:38.027Z,90.80
2017-10-26T07:27:05.585Z,90.60
2017-10-26T07:29:33.123Z,90.40
2017-10-26T07:32:00.694Z,90.20
2017-10-26T07:34:28.263Z,90.10
2017-10-26T07:36:55.804Z,90.00
2017-10-26T07:39:23.343Z,89.20
2017-10-26T07:41:50.936Z,88.80
2017-10-26T07:44:18.464Z,87.40
2017-10-26T07:46:46.772Z,86.20
2017-10-26T07:49:15.536Z,86.20
2017-10-26T07:51:43.851Z,85.40
2017-10-26T07:54:12.156Z,84.90
2017-10-26T07:56:39.718Z,84.90
2017-10-26T07:59:07.264Z,84.00
2017-10-26T08:01:34.805Z,83.20
2017-10-26T08:04:02.410Z,82.30
2017-10-26T08:06:29.947Z,81.60
2017-10-26T08:08:57.488Z,80.90
2017-10-26T08:11:25.056Z,78.00
2017-10-26T08:13:52.621Z,72.20
2017-10-26T08:16:20.161Z,68.10
2017-10-26T08:18:47.724Z,65.20
2017-10-26T08:21:17.232Z,59.40
2017-10-26T08:23:44.772Z,59.40
2017-10-26T08:26:12.356Z,57.60
2017-10-26T08:28:39.895Z,58.40
2017-10-26T08:31:07.434Z,59.60
2017-10-26T08:33:34.998Z,60.10
2017-10-26T08:36:03.301Z,60.20
2017-10-26T08:38:30.850Z,60.00
2017-10-26T08:40:58.418Z,57.00
2017-10-26T08:43:25.951Z,56.80
2017-10-26T08:45:53.492Z,58.50
2017-10-26T08:48:21.892Z,61.90
2017-10-26T08:50:50.198Z,62.10
2017-10-26T08:53:17.743Z,61.90
2017-10-26T08:55:45.308Z,62.10
2017-10-26T08:58:15.332Z,59.20
2017-10-26T09:00:42.865Z,59.10
2017-10-26T09:03:11.209Z,58.30
2017-10-26T09:05:38.743Z,58.30
2017-10-26T09:08:06.294Z,56.30
2017-10-26T09:10:33.876Z,54.80
2017-10-26T09:13:01.424Z,55.50
2017-10-26T09:15:29.159Z,54.50
2017-10-26T09:17:56.728Z,52.90
2017-10-26T09:20:26.095Z,49.20
2017-10-26T09:22:53.627Z,45.50
2017-10-26T09:25:21.187Z,45.30
2017-10-26T09:27:48.722Z,46.20
2017-10-26T09:30:16.860Z,48.50
2017-10-26T09:32:45.213Z,51.70
2017-10-26T09:35:13.671Z,51.70
2017-10-26T09:37:41.203Z,52.00
2017-10-26T09:40:08.763Z,53.00
2017-10-26T09:42:36.300Z,54.00
2017-10-26T09:45:03.844Z,52.50
2017-10-26T09:47:31.412Z,50.00
2017-10-26T09:49:59.719Z,45.60
2017-10-26T09:52:28.379Z,43.10
2017-10-26T09:54:56.731Z,43.90
2017-10-26T09:57:24.269Z,43.90
2017-10-26T09:59:51.798Z,44.20
2017-10-26T10:02:19.356Z,45.60
2017-10-26T10:04:46.891Z,46.80
2017-10-26T10:07:14.583Z,48.70
2017-10-26T10:17:12.218Z,50.40
2017-10-26T10:19:39.764Z,54.60
2017-10-26T10:22:07.314Z,55.20
2017-10-26T10:24:34.891Z,53.90
2017-10-26T10:27:02.425Z,54.00
2017-10-26T10:29:29.981Z,54.50
2017-10-26T10:31:58.443Z,56.50
2017-10-26T10:34:25.975Z,56.50
2017-10-26T10:36:53.520Z,56.00
2017-10-26T10:39:21.445Z,57.20
2017-10-26T10:41:49.775Z,57.20
2017-10-26T10:44:17.363Z,57.20
2017-10-26T10:46:45.224Z,57.90
2017-10-26T10:49:14.528Z,58.80
2017-10-26T10:51:42.101Z,58.10
2017-10-26T10:54:10.438Z,58.40
2017-10-26T10:56:38.084Z,58.40
2017-10-26T10:59:11.247Z,59.20
2017-10-26T11:01:39.725Z,60.10
2017-10-26T11:04:07.475Z,60.00
2017-10-26T11:06:35.203Z,57.60
2017-10-26T11:09:03.302Z,58.20
2017-10-26T11:11:30.904Z,57.90
2017-10-26T11:13:58.507Z,58.90
2017-10-26T11:16:26.190Z,58.50
2017-10-26T11:18:53.826Z,58.40
2017-10-26T11:21:21.463Z,60.00
2017-10-26T11:23:49.207Z,58.90
2017-10-26T11:26:16.785Z,60.10
2017-10-26T11:28:44.676Z,61.40
2017-10-26T11:31:12.250Z,60.00
2017-10-26T11:33:40.415Z,60.40
2017-10-26T11:36:08.031Z,59.00
2017-10-26T11:38:35.893Z,59.60
2017-10-26T11:41:03.832Z,60.10
2017-10-26T11:43:31.638Z,61.00
2017-10-26T11:45:59.211Z,59.00
2017-10-26T11:48:26.806Z,59.10
2017-10-26T11:50:54.551Z,59.60
2017-10-26T11:53:22.434Z,60.80
2017-10-26T11:55:50.052Z,60.60
2017-10-26T11:58:17.825Z,62.80
2017-10-26T12:00:45.577Z,62.70
2017-10-26T12:03:15.454Z,61.50
2017-10-26T12:05:43.204Z,61.40
2017-10-26T12:08:10.750Z,60.70
2017-10-26T12:10:38.328Z,60.10
2017-10-26T12:13:05.888Z,59.70
2017-10-26T12:15:33.420Z,60.40
2017-10-26T12:18:00.943Z,60.20
2017-10-26T12:20:29.272Z,59.60
2017-10-26T12:22:56.809Z,59.50
2017-10-26T12:25:24.344Z,59.10
2017-10-26T12:27:51.919Z,60.20
2017-10-26T12:30:19.463Z,59.90
2017-10-26T12:32:47.760Z,60.40
2017-10-26T12:35:16.507Z,60.40
2017-10-26T12:37:44.049Z,60.30
2017-10-26T12:40:11.573Z,61.10
2017-10-26T12:42:39.131Z,60.10
2017-10-26T12:45:07.376Z,60.10
2017-10-26T12:47:34.903Z,59.30
2017-10-26T12:50:02.517Z,59.40
2017-10-26T12:52:30.061Z,60.20
2017-10-26T12:54:57.587Z,59.70
2017-10-26T12:57:25.185Z,59.80
2017-10-26T12:59:54.431Z,59.70
2017-10-26T13:02:21.963Z,59.70
2017-10-26T13:04:49.532Z,59.90
2017-10-26T13:07:17.063Z,60.40
2017-10-26T13:09:44.592Z,59.60
2017-10-26T13:12:14.177Z,60.70
2017-10-26T13:14:41.707Z,60.70
2017-10-26T13:17:09.244Z,60.30
2017-10-26T13:19:37.184Z,59.90
2017-10-26T13:22:05.679Z,59.60
2017-10-26T13:24:33.208Z,59.70
2017-10-26T13:27:01.337Z,60.40
2017-10-26T13:29:28.871Z,59.50
2017-10-26T13:31:56.756Z,59.80
2017-10-26T13:34:25.374Z,61.00
2017-10-26T13:36:53.073Z,60.60
2017-10-26T13:39:21.483Z,61.30
2017-10-26T13:41:49.808Z,60.70
2017-10-26T13:44:17.343Z,60.60
2017-10-26T13:46:44.876Z,60.90
2017-10-26T13:49:12.461Z,62.80
2017-10-26T13:51:39.995Z,63.40
2017-10-26T13:54:08.287Z,63.00
2017-10-26T13:56:35.883Z,63.00
2017-10-26T13:59:03.759Z,63.30
2017-10-26T14:01:31.292Z,63.00
2017-10-26T14:03:58.868Z,62.50
2017-10-26T14:06:27.553Z,62.70
2017-10-26T14:08:55.101Z,62.50
2017-10-26T14:11:22.663Z,62.80
2017-10-26T14:13:50.239Z,64.60
2017-10-26T14:16:17.763Z,65.60
2017-10-26T14:18:45.525Z,64.70
2017-10-26T14:21:25.319Z,66.30
2017-10-26T14:27:02.033Z,66.30
2017-10-26T14:29:29.664Z,67.10
2017-10-26T14:31:57.236Z,67.40
2017-10-26T14:34:26.220Z,67.40
2017-10-26T14:36:53.767Z,67.90
2017-10-26T14:39:23.300Z,68.40
2017-10-26T14:41:50.917Z,68.40
2017-10-26T14:44:18.486Z,68.90
2017-10-26T14:46:46.065Z,69.40
2017-10-26T14:49:25.444Z,68.40
2017-10-26T14:53:23.160Z,68.40
2017-10-26T14:58:53.839Z,69.70
2017-10-26T15:01:21.551Z,69.50
2017-10-26T15:03:49.106Z,69.50
2017-10-26T15:06:18.668Z,69.70
2017-10-26T15:08:46.496Z,70.20
2017-10-26T15:11:25.979Z,70.40
2017-10-26T15:16:28.803Z,70.30
2017-10-26T15:18:57.200Z,70.70
2017-10-26T15:21:24.798Z,70.50
2017-10-26T15:23:53.461Z,70.60
2017-10-26T15:26:22.001Z,71.00
2017-10-26T15:28:50.006Z,71.30
2017-10-26T15:31:18.624Z,71.40
2017-10-26T15:33:46.208Z,71.50
2017-10-26T15:36:26.368Z,71.90
2017-10-26T15:41:28.136Z,72.10
2017-10-26T15:43:55.775Z,72.70
2017-10-26T15:46:23.394Z,73.10
2017-10-26T15:48:51.064Z,73.60
2017-10-26T15:51:18.730Z,74.10
2017-10-26T15:53:46.530Z,74.00
2017-10-26T15:56:30.645Z,74.30
2017-10-26T16:07:23.246Z,74.80
2017-10-26T16:09:50.860Z,76.10
2017-10-26T16:12:18.399Z,76.10
2017-10-26T16:14:46.007Z,76.40
2017-10-26T16:17:15.445Z,77.50
2017-10-26T16:19:43.027Z,77.40
2017-10-26T16:22:10.660Z,77.90
2017-10-26T16:24:38.245Z,78.40
2017-10-26T16:27:05.788Z,78.80
2017-10-26T16:29:33.367Z,79.80
2017-10-26T16:32:00.914Z,80.50
2017-10-26T16:34:28.479Z,81.00
2017-10-26T16:36:56.063Z,81.30
2017-10-26T16:39:23.597Z,81.40
2017-10-26T16:41:51.349Z,81.50
2017-10-26T16:44:18.937Z,82.00
2017-10-26T16:46:46.490Z,82.20
2017-10-26T16:49:26.272Z,82.80
2017-10-26T16:53:06.290Z,83.30
2017-10-26T16:55:33.889Z,83.20
2017-10-26T16:58:01.436Z,84.10
2017-10-26T17:00:28.969Z,84.80
2017-10-26T17:02:56.537Z,84.90
2017-10-26T17:05:24.081Z,85.30
2017-10-26T17:07:51.624Z,85.80
2017-10-26T17:10:19.404Z,86.00
2017-10-26T17:12:46.944Z,86.40
2017-10-26T17:15:24.570Z,86.60
2017-10-26T17:24:12.143Z,86.70
2017-10-26T17:26:39.674Z,87.20
2017-10-26T17:29:07.230Z,87.00
2017-10-26T17:31:35.584Z,86.90
2017-10-26T17:34:03.181Z,86.80
2017-10-26T17:36:30.741Z,87.20
2017-10-26T17:38:58.355Z,87.30
2017-10-26T17:41:25.907Z,87.20
2017-10-26T17:43:53.456Z,86.80
2017-10-26T17:46:21.077Z,86.90
2017-10-26T17:48:49.401Z,86.70
2017-10-26T17:51:16.964Z,86.60
2017-10-26T17:53:44.599Z,86.80
2017-10-26T17:56:12.139Z,86.80
2017-10-26T17:58:39.684Z,86.50
2017-10-26T18:01:08.023Z,85.90
2017-10-26T18:03:35.559Z,85.90
2017-10-26T18:06:03.093Z,86.10
2017-10-26T18:08:31.437Z,86.40
2017-10-26T18:10:58.981Z,86.40
2017-10-26T18:13:26.527Z,86.10
2017-10-26T18:15:54.111Z,85.80
2017-10-26T18:18:21.664Z,85.60
2017-10-26T18:20:49.201Z,85.80
2017-10-26T18:23:16.784Z,86.10
2017-10-26T18:25:44.321Z,86.40
2017-10-26T18:28:11.860Z,86.90
2017-10-26T18:30:39.427Z,86.80
2017-10-26T18:33:06.976Z,86.70
2017-10-26T18:35:34.520Z,86.50
2017-10-26T18:38:02.103Z,86.40
2017-10-26T18:40:29.643Z,86.40
2017-10-26T18:42:57.944Z,86.50
2017-10-26T18:45:26.102Z,86.50
2017-10-26T18:47:54.424Z,86.50
2017-10-26T18:50:21.975Z,86.40
2017-10-26T18:52:49.546Z,86.70
2017-10-26T18:55:17.578Z,86.80
2017-10-26T18:57:45.955Z,87.00
2017-10-26T19:00:15.621Z,87.30
2017-10-26T19:02:44.073Z,87.50
2017-10-26T19:05:13.775Z,87.30
2017-10-26T19:07:41.583Z,87.50
2017-10-26T19:10:09.127Z,87.90
2017-10-26T19:12:38.412Z,88.00
2017-10-26T19:15:07.253Z,88.20
2017-10-26T19:17:35.560Z,88.50
2017-10-26T19:20:03.092Z,88.40
2017-10-26T19:22:32.387Z,89.00
2017-10-26T19:25:02.209Z,89.20
2017-10-26T19:27:29.775Z,89.20
2017-10-26T19:29:57.343Z,89.40
2017-10-26T19:32:24.895Z,89.50
2017-10-26T19:35:11.336Z,89.60
2017-10-26T19:37:38.901Z,89.60
2017-10-26T19:40:06.444Z,89.50
2017-10-26T19:42:34.052Z,89.50
2017-10-26T19:45:01.612Z,89.50
2017-10-26T19:47:29.607Z,89.40
2017-10-26T19:49:57.172Z,89.40
2017-10-26T19:52:24.724Z,89.40
2017-10-26T19:54:52.264Z,89.50
2017-10-26T19:57:19.986Z,89.80
2017-10-26T19:59:47.525Z,90.00
2017-10-26T20:02:16.429Z,90.00
2017-10-26T20:04:44.016Z,89.80
2017-10-26T20:07:11.555Z,89.50
2017-10-26T20:09:39.090Z,89.30
2017-10-26T20:12:06.660Z,89.40
2017-10-26T20:14:34.208Z,89.80
2017-10-26T20:17:01.755Z,90.00
2017-10-26T20:19:30.085Z,89.80
2017-10-26T20:21:57.625Z,89.80
2017-10-26T20:24:25.165Z,89.90
2017-10-26T20:26:52.752Z,89.90
2017-10-26T20:29:20.284Z,89.80
2017-10-26T20:31:47.819Z,89.70
2017-10-26T20:34:16.449Z,89.50
2017-10-26T20:36:43.978Z,89.70
2017-10-26T20:39:11.511Z,89.70
2017-10-26T20:41:39.087Z,89.50
2017-10-26T20:44:06.620Z,89.50
2017-10-26T20:46:34.153Z,89.70
2017-10-26T20:49:07.971Z,90.00
2017-10-26T20:51:41.000Z,90.00
2017-10-26T20:54:14.144Z,90.00
2017-10-26T20:56:47.268Z,90.00
2017-10-26T20:59:22.851Z,89.90
2017-10-26T21:01:55.968Z,89.80
2017-10-26T21:04:29.272Z,89.80
2017-10-26T21:06:56.815Z,89.70
2017-10-26T21:09:25.279Z,89.70
2017-10-26T21:11:58.727Z,89.80
2017-10-26T21:14:28.218Z,89.60
2017-10-26T21:16:55.759Z,89.50
2017-10-26T21:19:23.340Z,89.60
2017-10-26T21:21:50.878Z,89.70
2017-10-26T21:24:18.423Z,89.60
2017-10-26T21:26:46.055Z,89.40
2017-10-26T21:29:24.734Z,90.00
2017-10-26T21:36:03.849Z,89.30
2017-10-26T21:38:32.156Z,90.00
2017-10-26T21:40:59.687Z,90.00
2017-10-26T21:43:27.284Z,90.00
2017-10-26T21:45:54.820Z,89.80
2017-10-26T21:48:22.359Z,89.80
2017-10-26T21:50:49.924Z,89.60
2017-10-26T21:53:18.223Z,89.40
2017-10-26T21:55:45.755Z,89.20
2017-10-26T21:58:15.411Z,89.20
2017-10-26T22:00:42.944Z,89.20
2017-10-26T22:03:10.484Z,89.00
2017-10-26T22:05:38.072Z,89.10
2017-10-26T22:08:05.616Z,89.10
2017-10-26T22:10:33.384Z,89.00
2017-10-26T22:13:00.968Z,89.00
2017-10-26T22:15:28.517Z,89.00
2017-10-26T22:17:56.056Z,89.00
2017-10-26T22:20:23.620Z,89.00
2017-10-26T22:22:51.911Z,89.00
2017-10-26T22:25:19.464Z,89.00
2017-10-26T22:27:47.043Z,88.80
2017-10-26T22:30:15.540Z,88.50
2017-10-26T22:32:43.071Z,88.50
2017-10-26T22:35:10.624Z,89.20
2017-10-26T22:37:38.168Z,88.30
2017-10-26T22:40:05.712Z,88.30
2017-10-26T22:42:33.275Z,88.20
2017-10-26T22:45:00.812Z,88.10
2017-10-26T22:47:28.370Z,88.10
2017-10-26T22:49:55.988Z,87.70
2017-10-26T22:52:23.667Z,87.70
2017-10-26T22:54:51.974Z,87.50
2017-10-26T22:57:19.556Z,87.50
2017-10-26T22:59:47.101Z,87.40
2017-10-26T23:02:26.694Z,87.30
2017-10-26T23:07:33.438Z,87.00
2017-10-26T23:10:00.984Z,87.40
2017-10-26T23:12:28.525Z,87.60
2017-10-26T23:14:56.084Z,87.60
2017-10-26T23:17:23.629Z,87.40
2017-10-26T23:19:51.158Z,87.20
2017-10-26T23:22:19.044Z,86.80
2017-10-26T23:24:46.625Z,86.80
2017-10-26T23:27:16.347Z,86.50
2017-10-26T23:29:44.107Z,86.50
2017-10-26T23:32:11.650Z,86.50
2017-10-26T23:34:39.188Z,86.40
2017-10-26T23:37:06.795Z,86.20
2017-10-26T23:39:34.361Z,86.30
2017-10-26T23:42:01.914Z,86.00
2017-10-26T23:44:29.537Z,85.90
2017-10-26T23:46:57.182Z,85.80
2017-10-26T23:49:24.922Z,85.70
2017-10-26T23:51:53.313Z,85.70
2017-10-26T23:54:21.114Z,85.90
2017-10-26T23:56:48.777Z,86.00
2017-10-26T23:59:16.875Z,85.80
